Terminal Aerodrome Forecast
Issued by NWS Wichita, KS

Home | Current Version | Previous Version | Text Only | Print | Product List | Glossary On
Versions: 1 2 3 4 5 6 7 8 9 10 11 12 13 14 15 16 17 18 19 20 21 22 23 24 25 26 27 28 29
000
FTUS43 KICT 221740
TAFICT
TAF
KICT 221740Z 2218/2318 33015G20KT P6SM SCT015 BKN080
     FM221900 32022G32KT P6SM BKN080
     FM230000 30012KT P6SM SCT120
     FM231600 30015G25KT P6SM BKN060=

USA.gov is the U.S. government's official web portal to all federal, state and local government web resources and services.